Accueil
METAR-TAF:

METAR-TAF

Aéroports :

Bückeburg, Allemagne

latitude: 52-17N, longitude: 009-05E, altitude: 70 m

Observation

Le bulletin a été fait il y a 1 heure et 2 minutes, à 21:20 UTC
Vent 3 kt de sud/sud-est avec des rafales jusqu'à 13 kt
Température 16°C
Humidité 72%
Pression 1025 hPa
Visibilité 10 km ou plus

METAR: ETHB 222120Z 16003G13KT 9999 16/11 Q1025 BLU+BLU+

Heure: 00:22 (22:22 UTC)

Prévision

Le bulletin a été fait il y a 31 minutes, à 21:51 UTC
Prévision valable du 22 à 20 UTC au 23 à 05 UTC
Vent 3 kt de sud/sud-ouest
Visibilité 10 km ou plus
Quelques nuages à une hauteur de 35000 ft
Probabilité 30%
du 23 à 02 UTC au 23 à 05 UTC
Vent 2 kt de direction variable
Visibilité: 2200 m
Ciel clair
Brouillard mince

TAF: ETHB 222151Z 2220/2305 20003KT 9999 NSW FEW350 PROB30 2302/2305 VRB02KT 3000 MIFG SKC CANCEL 2200

Observations et prévisions météorologiques de plus de 4000 aéroports (messages METAR et TAF).

Les stations disponibles sont représentées par des disques jaunes et rouges sur la carte.

Passer la souris dessus pour voir le nom de la station.

Cliquer dessus pour voir les observations et prévisions météorologiques.

Pour changer de carte: cliquez sur les boutons verts avec une croix noire pour zoomer, sur le bouton vert avec un tiret pour effectuer un zoom arrière, ou sur les flèches vertes pour les cartes adjacentes.


METAR-TAF: